createdAt,value
2022-10-17T00:00:00.963Z,92.91
2022-10-17T00:00:32.293Z,92.45
2022-10-17T00:01:05.152Z,92.55
2022-10-17T00:01:36.652Z,92.23
2022-10-17T00:02:08.057Z,91.94
2022-10-17T00:02:39.577Z,91.74
2022-10-17T00:03:11.139Z,92.10
2022-10-17T00:03:42.562Z,92.03
2022-10-17T00:04:13.975Z,92.23
2022-10-17T00:04:45.316Z,91.91
2022-10-17T00:05:16.779Z,91.86
2022-10-17T00:05:48.517Z,91.66
2022-10-17T00:06:19.902Z,91.87
2022-10-17T00:06:51.301Z,91.86
2022-10-17T00:07:22.656Z,91.87
2022-10-17T00:07:54.778Z,91.91
2022-10-17T00:08:26.120Z,91.94
2022-10-17T00:08:57.668Z,92.13
2022-10-17T00:09:29.015Z,92.13
2022-10-17T00:10:00.403Z,92.07
2022-10-17T00:10:31.786Z,92.09
2022-10-17T00:11:07.039Z,91.98
2022-10-17T00:11:38.586Z,92.15
2022-10-17T00:12:10.359Z,92.21
2022-10-17T00:12:41.745Z,92.59
2022-10-17T00:13:13.149Z,92.22
2022-10-17T00:13:46.109Z,92.15
2022-10-17T00:14:17.515Z,91.96
2022-10-17T00:14:48.889Z,92.15
2022-10-17T00:15:21.480Z,92.58
2022-10-17T00:15:53.294Z,93.34
2022-10-17T00:16:30.852Z,92.60
2022-10-17T00:17:02.544Z,92.37
2022-10-17T00:17:34.691Z,92.58
2022-10-17T00:18:06.065Z,92.27
2022-10-17T00:18:37.491Z,91.93
2022-10-17T00:19:08.867Z,92.17
2022-10-17T00:19:40.430Z,91.76
2022-10-17T00:20:12.442Z,92.45
2022-10-17T00:20:43.834Z,92.01
2022-10-17T00:21:16.997Z,91.99
2022-10-17T00:21:52.301Z,92.00
2022-10-17T00:22:23.688Z,92.28
2022-10-17T00:22:55.095Z,92.07
2022-10-17T00:23:28.491Z,91.72
2022-10-17T00:24:01.203Z,92.19
2022-10-17T00:24:32.586Z,91.77
2022-10-17T00:25:04.413Z,91.82
2022-10-17T00:25:37.113Z,91.86
2022-10-17T00:26:08.714Z,91.33
2022-10-17T00:26:40.092Z,91.29
2022-10-17T00:27:11.649Z,91.36
2022-10-17T00:27:43.113Z,91.64
2022-10-17T00:28:15.702Z,91.46
2022-10-17T00:28:48.717Z,91.29
2022-10-17T00:29:20.312Z,91.55
2022-10-17T00:29:52.056Z,91.14
2022-10-17T00:30:23.671Z,91.03
2022-10-17T00:30:56.963Z,91.34
2022-10-17T00:31:28.515Z,90.93
2022-10-17T00:31:59.907Z,91.07
2022-10-17T00:32:32.066Z,90.91
2022-10-17T00:33:03.481Z,91.46
2022-10-17T00:33:35.789Z,91.29
2022-10-17T00:34:07.173Z,91.59
2022-10-17T00:34:38.528Z,91.47
2022-10-17T00:35:10.649Z,91.62
2022-10-17T00:35:42.138Z,91.96
2022-10-17T00:36:16.209Z,92.22
2022-10-17T00:36:47.736Z,92.21
2022-10-17T00:37:19.104Z,92.33
2022-10-17T00:37:50.459Z,92.62
2022-10-17T00:38:21.782Z,92.67
2022-10-17T00:38:56.807Z,92.89
2022-10-17T00:39:28.242Z,92.93
2022-10-17T00:39:59.989Z,92.31
2022-10-17T00:40:31.397Z,92.50
2022-10-17T00:41:03.915Z,92.42
2022-10-17T00:41:35.486Z,92.64
2022-10-17T00:42:07.100Z,92.16
2022-10-17T00:42:38.772Z,92.21
2022-10-17T00:43:16.901Z,92.15
2022-10-17T00:44:05.200Z,92.42
2022-10-17T00:44:36.673Z,92.40
2022-10-17T00:45:14.217Z,91.54
2022-10-17T00:45:45.771Z,92.58
2022-10-17T00:46:17.417Z,92.67
2022-10-17T00:46:48.899Z,92.52
2022-10-17T00:47:22.858Z,92.54
2022-10-17T00:48:08.410Z,92.44
2022-10-17T00:48:39.958Z,92.16
2022-10-17T00:49:12.575Z,92.65
2022-10-17T00:49:44.261Z,92.71
2022-10-17T00:50:15.914Z,92.41
2022-10-17T00:50:49.835Z,93.16
2022-10-17T00:51:27.576Z,93.15
2022-10-17T00:52:02.740Z,93.54
2022-10-17T00:52:34.928Z,93.50
2022-10-17T00:53:08.459Z,93.57
2022-10-17T00:53:40.548Z,93.12
2022-10-17T00:54:14.645Z,92.91
2022-10-17T00:54:50.063Z,93.56
2022-10-17T00:55:29.242Z,93.27
2022-10-17T00:56:01.658Z,93.41
2022-10-17T00:56:33.658Z,93.77
2022-10-17T00:57:06.029Z,94.44
2022-10-17T00:57:39.710Z,94.03
2022-10-17T00:58:11.639Z,93.61
2022-10-17T00:58:43.070Z,93.53
2022-10-17T00:59:16.459Z,93.01
2022-10-17T00:59:51.991Z,92.90
2022-10-17T01:00:24.281Z,92.66
2022-10-17T01:00:55.692Z,92.55
2022-10-17T01:01:27.180Z,92.56
2022-10-17T01:02:14.239Z,92.72
2022-10-17T01:02:45.902Z,92.32
2022-10-17T01:03:17.341Z,92.67
2022-10-17T01:03:48.811Z,93.40
2022-10-17T01:04:20.535Z,92.99
2022-10-17T01:04:55.046Z,93.29
2022-10-17T01:05:26.469Z,92.96
2022-10-17T01:05:57.951Z,93.00
2022-10-17T01:06:29.391Z,93.12
2022-10-17T01:07:00.943Z,92.71
2022-10-17T01:07:34.939Z,92.95
2022-10-17T01:08:09.534Z,93.21
2022-10-17T01:08:40.938Z,92.60
2022-10-17T01:09:12.321Z,92.39
2022-10-17T01:09:45.908Z,91.93
2022-10-17T01:10:17.983Z,92.47
2022-10-17T01:11:08.187Z,92.38
2022-10-17T01:11:45.121Z,92.43
2022-10-17T01:12:26.409Z,91.85
2022-10-17T01:13:27.269Z,92.12
2022-10-17T01:14:09.180Z,91.83
2022-10-17T01:15:09.357Z,91.91
2022-10-17T01:16:05.653Z,91.62
2022-10-17T01:16:52.053Z,91.79
2022-10-17T01:17:48.664Z,91.53
2022-10-17T01:18:37.323Z,91.24
2022-10-17T01:19:50.998Z,91.78
2022-10-17T01:20:40.950Z,90.87
2022-10-17T01:21:26.309Z,91.56
2022-10-17T01:22:05.853Z,91.32
2022-10-17T01:22:49.864Z,91.25
2022-10-17T01:23:57.692Z,91.51
2022-10-17T01:24:48.573Z,91.09
2022-10-17T01:25:53.869Z,91.87
2022-10-17T01:26:42.772Z,91.53
2022-10-17T01:27:39.424Z,91.97
2022-10-17T01:28:44.074Z,91.65
2022-10-17T01:29:21.083Z,92.18
2022-10-17T01:30:16.653Z,91.67
2022-10-17T01:30:53.895Z,92.15
2022-10-17T01:32:03.825Z,92.56
2022-10-17T01:32:46.429Z,92.19
2022-10-17T01:33:42.205Z,92.68
2022-10-17T01:34:31.782Z,92.58
2022-10-17T01:35:16.225Z,92.48
2022-10-17T01:36:06.133Z,92.48
2022-10-17T01:37:03.076Z,92.64
2022-10-17T01:38:03.617Z,92.15
2022-10-17T01:38:46.081Z,92.38
2022-10-17T01:39:30.269Z,92.38
2022-10-17T01:40:06.995Z,92.59
2022-10-17T01:40:58.589Z,91.80
2022-10-17T01:41:42.508Z,92.70
2022-10-17T01:42:51.427Z,92.66
2022-10-17T01:43:42.332Z,92.94
2022-10-17T01:44:23.181Z,91.83
2022-10-17T01:45:13.988Z,93.07
2022-10-17T01:46:12.789Z,92.84
2022-10-17T01:46:52.078Z,92.70
2022-10-17T01:47:29.159Z,92.87
2022-10-17T01:48:22.869Z,92.76
2022-10-17T01:48:55.831Z,92.94
2022-10-17T01:49:31.039Z,92.69
2022-10-17T01:50:15.313Z,92.57
2022-10-17T01:50:52.669Z,92.16
2022-10-17T01:51:33.198Z,92.58
2022-10-17T01:52:19.484Z,91.91
2022-10-17T01:53:03.579Z,92.32
2022-10-17T01:53:42.099Z,92.50
2022-10-17T01:54:21.575Z,92.05
2022-10-17T01:54:58.625Z,91.78
2022-10-17T01:55:36.433Z,91.95
2022-10-17T01:56:12.100Z,92.54
2022-10-17T01:56:45.886Z,91.98
2022-10-17T01:57:33.240Z,91.67
2022-10-17T01:58:12.645Z,92.27
2022-10-17T01:58:50.574Z,92.10
2022-10-17T01:59:31.161Z,92.02
2022-10-17T02:00:06.111Z,91.92
2022-10-17T02:00:40.046Z,92.44
2022-10-17T02:01:12.792Z,93.23
2022-10-17T02:01:46.384Z,93.52
2022-10-17T02:02:20.551Z,93.11
2022-10-17T02:03:03.450Z,93.04
2022-10-17T02:03:35.925Z,92.71
2022-10-17T02:04:11.175Z,92.74
2022-10-17T02:04:43.014Z,92.33
2022-10-17T02:05:17.312Z,92.95
2022-10-17T02:05:48.814Z,92.50
2022-10-17T02:06:20.366Z,92.77
2022-10-17T02:06:51.728Z,92.82
2022-10-17T02:07:23.180Z,92.63
2022-10-17T02:07:54.625Z,93.28
2022-10-17T02:08:29.870Z,93.34
2022-10-17T02:09:02.389Z,92.98
2022-10-17T02:09:33.915Z,93.04
2022-10-17T02:10:12.979Z,93.21
2022-10-17T02:10:53.396Z,92.23
2022-10-17T02:11:27.244Z,92.70
2022-10-17T02:12:20.166Z,94.05
2022-10-17T02:13:01.996Z,94.09
2022-10-17T02:13:45.088Z,93.59
2022-10-17T02:14:41.238Z,94.69
2022-10-17T02:15:59.279Z,94.34
2022-10-17T02:16:39.288Z,94.26
2022-10-17T02:17:26.450Z,94.73
2022-10-17T02:18:13.671Z,94.27
2022-10-17T02:18:44.935Z,94.77
2022-10-17T02:19:25.097Z,94.82
2022-10-17T02:19:59.069Z,94.00
2022-10-17T02:20:40.901Z,94.22
2022-10-17T02:21:27.084Z,94.32
2022-10-17T02:22:18.700Z,94.47
2022-10-17T02:22:57.153Z,94.43
2022-10-17T02:23:33.567Z,94.90
2022-10-17T02:24:14.201Z,94.61
2022-10-17T02:25:18.575Z,94.62
2022-10-17T02:26:10.314Z,94.53
2022-10-17T02:26:52.621Z,94.82
2022-10-17T02:27:30.459Z,95.07
2022-10-17T02:28:21.521Z,95.19
2022-10-17T02:29:17.817Z,95.54
2022-10-17T02:30:16.087Z,95.09
2022-10-17T02:30:53.572Z,95.67
2022-10-17T02:31:33.411Z,95.10
2022-10-17T02:32:11.607Z,95.16
2022-10-17T02:32:51.489Z,95.13
2022-10-17T02:33:28.699Z,95.53
2022-10-17T02:34:05.133Z,95.13
2022-10-17T02:34:47.407Z,95.29
2022-10-17T02:35:20.304Z,95.50
2022-10-17T02:35:56.282Z,96.17
2022-10-17T02:36:35.114Z,96.42
2022-10-17T02:37:09.633Z,96.62
2022-10-17T02:37:44.091Z,96.90
2022-10-17T02:38:16.649Z,96.83
2022-10-17T02:38:50.302Z,96.60
2022-10-17T02:39:24.988Z,96.90
2022-10-17T02:39:59.286Z,96.71
2022-10-17T02:40:31.911Z,97.36
2022-10-17T02:41:07.611Z,96.87
2022-10-17T02:41:40.861Z,97.12
2022-10-17T02:42:14.000Z,96.87
2022-10-17T02:42:46.392Z,97.06
2022-10-17T02:43:17.966Z,97.64
2022-10-17T02:43:50.932Z,97.78
2022-10-17T02:44:24.645Z,98.07
2022-10-17T02:45:00.963Z,97.86
2022-10-17T02:45:36.033Z,97.90
2022-10-17T02:46:08.123Z,97.93
2022-10-17T02:46:41.470Z,97.47
2022-10-17T02:47:31.934Z,97.72
2022-10-17T02:48:10.875Z,98.22
2022-10-17T02:48:47.439Z,98.47
2022-10-17T02:49:24.345Z,98.49
2022-10-17T02:49:58.402Z,97.89
2022-10-17T02:50:51.424Z,97.63
2022-10-17T02:51:25.846Z,97.61
2022-10-17T02:52:05.211Z,98.23
2022-10-17T02:52:49.480Z,97.51
2022-10-17T02:53:45.977Z,98.08
2022-10-17T02:54:22.386Z,98.46
2022-10-17T02:55:16.537Z,98.85
2022-10-17T02:55:53.840Z,98.69
2022-10-17T02:56:28.879Z,98.45
2022-10-17T02:57:08.702Z,98.30
2022-10-17T02:57:44.361Z,98.60
2022-10-17T02:58:23.958Z,98.50
2022-10-17T02:58:59.483Z,98.17
2022-10-17T03:00:08.942Z,98.80
2022-10-17T03:00:41.614Z,98.78
2022-10-17T03:01:14.193Z,98.40
2022-10-17T03:01:46.121Z,98.25
2022-10-17T03:02:17.960Z,98.76
2022-10-17T03:02:51.611Z,98.88
2022-10-17T03:03:26.660Z,98.42
2022-10-17T03:04:12.874Z,98.74
2022-10-17T03:04:46.185Z,98.51
2022-10-17T03:05:21.004Z,98.89
2022-10-17T03:05:52.948Z,98.54
2022-10-17T03:06:24.354Z,98.54
2022-10-17T03:06:56.033Z,98.51
2022-10-17T03:07:27.577Z,98.71
2022-10-17T03:07:59.045Z,98.66
2022-10-17T03:08:30.582Z,98.46
2022-10-17T03:09:02.068Z,98.42
2022-10-17T03:09:33.477Z,98.54
2022-10-17T03:10:05.520Z,98.86
2022-10-17T03:10:37.047Z,98.98
2022-10-17T03:11:08.750Z,99.36
2022-10-17T03:11:40.132Z,98.81
2022-10-17T03:12:11.481Z,98.97
2022-10-17T03:12:43.093Z,98.67
2022-10-17T03:13:15.942Z,98.43
2022-10-17T03:13:47.553Z,98.91
2022-10-17T03:14:18.918Z,98.85
2022-10-17T03:14:50.266Z,99.00
2022-10-17T03:15:21.669Z,98.59
2022-10-17T03:15:53.030Z,98.92
2022-10-17T03:16:24.735Z,99.42
2022-10-17T03:16:56.313Z,98.89
2022-10-17T03:17:27.681Z,98.75
2022-10-17T03:17:59.207Z,99.06
2022-10-17T03:18:30.577Z,98.91
2022-10-17T03:19:02.001Z,99.20
2022-10-17T03:19:33.374Z,99.05
2022-10-17T03:20:06.593Z,99.12
2022-10-17T03:20:38.119Z,98.89
2022-10-17T03:21:09.549Z,98.93
2022-10-17T03:21:41.148Z,98.90
2022-10-17T03:22:12.517Z,99.30
2022-10-17T03:22:43.868Z,99.51
2022-10-17T03:23:15.490Z,99.73
2022-10-17T03:23:47.129Z,99.71
2022-10-17T03:24:18.490Z,99.28
2022-10-17T03:24:50.465Z,99.68
2022-10-17T03:25:22.058Z,99.53
2022-10-17T03:25:53.466Z,99.54
2022-10-17T03:26:24.935Z,99.57
2022-10-17T03:26:56.479Z,99.74
2022-10-17T03:27:28.103Z,99.87
2022-10-17T03:28:01.637Z,99.67
2022-10-17T03:28:33.427Z,99.84
2022-10-17T03:29:05.133Z,99.82
2022-10-17T03:29:36.536Z,99.78
2022-10-17T03:30:08.817Z,99.48
2022-10-17T03:30:40.214Z,100.00
2022-10-17T03:31:15.904Z,100.00
2022-10-17T03:31:47.524Z,100.00
2022-10-17T03:32:18.969Z,100.00
2022-10-17T03:32:50.610Z,100.00
2022-10-17T03:33:21.946Z,99.72
2022-10-17T03:33:53.334Z,99.79
2022-10-17T03:34:24.702Z,100.00
2022-10-17T03:34:56.181Z,100.00
2022-10-17T03:35:27.754Z,99.64
2022-10-17T03:35:59.303Z,99.71
2022-10-17T03:36:30.693Z,99.60
2022-10-17T03:37:02.352Z,99.80
2022-10-17T03:37:33.755Z,99.82
2022-10-17T03:38:05.129Z,100.00
2022-10-17T03:38:37.244Z,100.00
2022-10-17T03:39:08.873Z,100.00
2022-10-17T03:39:40.462Z,100.00
2022-10-17T03:40:11.885Z,100.00
2022-10-17T03:40:43.237Z,100.00
2022-10-17T03:41:14.914Z,100.00
2022-10-17T03:41:46.630Z,100.00
2022-10-17T03:42:17.988Z,100.00
2022-10-17T03:42:49.418Z,100.00
2022-10-17T03:43:20.784Z,100.00
2022-10-17T03:43:55.175Z,100.00
2022-10-17T03:44:26.571Z,100.00
2022-10-17T03:44:57.922Z,100.00
2022-10-17T03:45:29.379Z,100.00
2022-10-17T03:46:01.418Z,100.00
2022-10-17T03:46:33.034Z,100.00
2022-10-17T03:47:04.454Z,100.00
2022-10-17T03:47:35.853Z,100.00
2022-10-17T03:48:07.410Z,100.00
2022-10-17T03:48:39.042Z,100.00
2022-10-17T03:49:10.557Z,100.00
2022-10-17T03:49:42.008Z,100.00
2022-10-17T03:50:13.535Z,100.00
2022-10-17T03:50:44.893Z,100.00
2022-10-17T03:51:16.399Z,100.00
2022-10-17T03:51:47.791Z,100.00
2022-10-17T03:52:19.169Z,100.00
2022-10-17T03:52:50.594Z,100.00
2022-10-17T03:53:22.091Z,100.00
2022-10-17T03:53:53.602Z,100.00
2022-10-17T03:54:24.989Z,100.00
2022-10-17T03:54:56.385Z,100.00
2022-10-17T03:55:27.803Z,100.00
2022-10-17T03:56:24.895Z,100.00
2022-10-17T03:57:29.020Z,100.00
2022-10-17T03:58:00.537Z,100.00
2022-10-17T03:58:31.884Z,100.00
2022-10-17T03:59:03.516Z,100.00
2022-10-17T03:59:35.076Z,100.00
2022-10-17T04:00:07.214Z,100.00
2022-10-17T04:00:38.598Z,100.00
2022-10-17T04:01:12.801Z,100.00
2022-10-17T04:01:44.803Z,100.00
2022-10-17T04:02:16.490Z,100.00
2022-10-17T04:02:47.847Z,100.00
2022-10-17T04:03:19.469Z,100.00
2022-10-17T04:03:56.212Z,100.00
2022-10-17T04:04:27.721Z,100.00
2022-10-17T04:04:59.583Z,100.00
2022-10-17T04:05:31.126Z,100.00
2022-10-17T04:06:06.579Z,100.00
2022-10-17T04:06:41.094Z,100.00
2022-10-17T04:07:13.536Z,100.00
2022-10-17T04:07:44.922Z,100.00
2022-10-17T04:08:16.377Z,100.00
2022-10-17T04:08:48.374Z,100.00
2022-10-17T04:09:19.861Z,100.00
2022-10-17T04:09:51.296Z,100.00
2022-10-17T04:10:22.710Z,100.00
2022-10-17T04:10:59.174Z,100.00
2022-10-17T04:11:30.997Z,100.00
2022-10-17T04:12:02.397Z,100.00
2022-10-17T04:12:33.758Z,100.00
2022-10-17T04:13:06.516Z,100.00
2022-10-17T04:13:37.984Z,100.00
2022-10-17T04:14:09.734Z,100.00
2022-10-17T04:14:41.083Z,100.00
2022-10-17T04:15:12.626Z,100.00
2022-10-17T04:15:54.742Z,100.00
2022-10-17T04:16:27.265Z,100.00
2022-10-17T04:16:58.728Z,100.00
2022-10-17T04:17:35.764Z,100.00
2022-10-17T04:18:09.611Z,100.00
2022-10-17T04:18:41.803Z,100.00
2022-10-17T04:19:14.270Z,100.00
2022-10-17T04:19:45.671Z,100.00
2022-10-17T04:20:17.184Z,100.00
2022-10-17T04:20:48.581Z,100.00
2022-10-17T04:21:20.032Z,100.00
2022-10-17T04:21:51.412Z,100.00
2022-10-17T04:22:23.006Z,100.00
2022-10-17T04:22:54.437Z,100.00
2022-10-17T04:23:27.922Z,100.00
2022-10-17T04:24:00.779Z,100.00
2022-10-17T04:24:32.432Z,100.00
2022-10-17T04:25:04.357Z,100.00
2022-10-17T04:25:36.786Z,100.00
2022-10-17T04:26:08.310Z,100.00
2022-10-17T04:26:39.899Z,100.00
2022-10-17T04:27:11.368Z,100.00
2022-10-17T04:27:45.077Z,100.00
2022-10-17T04:28:16.418Z,100.00
2022-10-17T04:28:48.021Z,100.00
2022-10-17T04:29:19.441Z,100.00
2022-10-17T04:29:50.847Z,100.00
2022-10-17T04:30:22.279Z,100.00
2022-10-17T04:31:01.680Z,100.00
2022-10-17T04:31:33.121Z,100.00
2022-10-17T04:32:04.662Z,100.00
2022-10-17T04:32:38.551Z,100.00
2022-10-17T04:33:09.897Z,100.00
2022-10-17T04:33:42.276Z,100.00
2022-10-17T04:34:16.953Z,100.00
2022-10-17T04:34:50.127Z,100.00
2022-10-17T04:35:21.665Z,100.00
2022-10-17T04:36:13.268Z,100.00
2022-10-17T04:36:44.612Z,100.00
2022-10-17T04:37:16.369Z,100.00
2022-10-17T04:37:47.710Z,100.00
2022-10-17T04:38:19.105Z,100.00
2022-10-17T04:38:50.655Z,100.00
2022-10-17T04:39:22.216Z,100.00
2022-10-17T04:39:56.713Z,100.00
2022-10-17T04:40:28.120Z,100.00
2022-10-17T04:41:03.132Z,100.00
2022-10-17T04:41:34.624Z,100.00
2022-10-17T04:42:06.194Z,100.00
2022-10-17T04:42:37.777Z,100.00
2022-10-17T04:43:10.481Z,100.00
2022-10-17T04:43:45.536Z,100.00
2022-10-17T04:44:20.813Z,100.00
2022-10-17T04:44:52.471Z,100.00
2022-10-17T04:45:23.833Z,100.00
2022-10-17T04:45:57.474Z,100.00
2022-10-17T04:46:28.917Z,100.00
2022-10-17T04:47:00.332Z,100.00
2022-10-17T04:47:32.147Z,100.00
2022-10-17T04:48:03.629Z,100.00
2022-10-17T04:48:35.332Z,100.00
2022-10-17T04:49:06.921Z,100.00
2022-10-17T04:49:38.413Z,100.00
2022-10-17T04:50:10.226Z,100.00
2022-10-17T04:50:41.675Z,100.00
2022-10-17T04:51:16.372Z,100.00
2022-10-17T04:51:47.925Z,100.00
2022-10-17T04:52:19.357Z,100.00
2022-10-17T04:52:53.263Z,100.00
2022-10-17T04:53:25.060Z,100.00
2022-10-17T04:53:56.557Z,100.00
2022-10-17T04:54:27.932Z,100.00
2022-10-17T04:54:59.509Z,100.00
2022-10-17T04:55:31.657Z,100.00
2022-10-17T04:56:09.641Z,100.00
2022-10-17T04:56:41.117Z,100.00
2022-10-17T04:57:12.685Z,100.00
2022-10-17T04:57:44.244Z,100.00
2022-10-17T04:58:16.847Z,100.00
2022-10-17T04:58:48.509Z,100.00
2022-10-17T04:59:19.962Z,100.00
2022-10-17T04:59:51.440Z,100.00
2022-10-17T05:00:22.925Z,100.00
2022-10-17T05:00:54.345Z,100.00
2022-10-17T05:01:26.117Z,100.00
2022-10-17T05:01:57.514Z,100.00
2022-10-17T05:02:29.365Z,100.00
2022-10-17T05:03:03.425Z,100.00
2022-10-17T05:03:36.092Z,100.00
2022-10-17T05:04:07.507Z,100.00
2022-10-17T05:04:38.887Z,100.00
2022-10-17T05:05:10.400Z,100.00
2022-10-17T05:05:42.790Z,100.00
2022-10-17T05:06:18.552Z,100.00
2022-10-17T05:06:50.153Z,100.00
2022-10-17T05:07:21.741Z,100.00
2022-10-17T05:07:53.299Z,100.00
2022-10-17T05:08:24.648Z,100.00
2022-10-17T05:08:57.463Z,100.00
2022-10-17T05:09:31.558Z,100.00
2022-10-17T05:10:03.474Z,100.00
2022-10-17T05:10:43.596Z,100.00
2022-10-17T05:11:25.494Z,100.00
2022-10-17T05:11:57.089Z,100.00
2022-10-17T05:12:28.652Z,100.00
2022-10-17T05:13:00.241Z,100.00
2022-10-17T05:13:33.603Z,100.00
2022-10-17T05:14:04.959Z,100.00
2022-10-17T05:14:36.316Z,100.00
2022-10-17T05:15:08.303Z,100.00
2022-10-17T05:15:39.762Z,100.00
2022-10-17T05:16:11.203Z,100.00
2022-10-17T05:16:42.767Z,100.00
2022-10-17T05:17:14.152Z,100.00
2022-10-17T05:17:46.018Z,100.00
2022-10-17T05:18:19.962Z,100.00
2022-10-17T05:18:53.828Z,100.00
2022-10-17T05:19:25.286Z,100.00
2022-10-17T05:19:56.886Z,100.00
2022-10-17T05:20:29.521Z,100.00
2022-10-17T05:21:03.700Z,100.00
2022-10-17T05:21:37.195Z,100.00
2022-10-17T05:22:08.793Z,100.00
2022-10-17T05:22:42.048Z,100.00
2022-10-17T05:23:13.758Z,100.00
2022-10-17T05:23:45.974Z,100.00
2022-10-17T05:24:17.518Z,100.00
2022-10-17T05:24:51.842Z,100.00
2022-10-17T05:25:24.440Z,100.00
2022-10-17T05:25:55.938Z,100.00
2022-10-17T05:26:27.336Z,100.00
2022-10-17T05:26:58.961Z,100.00
2022-10-17T05:27:30.393Z,100.00
2022-10-17T05:28:01.708Z,100.00
2022-10-17T05:28:34.436Z,100.00
2022-10-17T05:29:06.153Z,100.00
2022-10-17T05:29:37.618Z,100.00
2022-10-17T05:30:09.708Z,100.00
2022-10-17T05:30:41.334Z,100.00
2022-10-17T05:31:13.322Z,100.00
2022-10-17T05:31:44.664Z,100.00
2022-10-17T05:32:16.706Z,100.00
2022-10-17T05:32:48.347Z,100.00
2022-10-17T05:33:19.952Z,100.00
2022-10-17T05:33:51.319Z,100.00
2022-10-17T05:34:23.030Z,100.00
2022-10-17T05:34:54.417Z,100.00
2022-10-17T05:35:25.853Z,100.00
2022-10-17T05:35:57.742Z,100.00
2022-10-17T05:36:29.236Z,100.00
2022-10-17T05:37:00.624Z,100.00
2022-10-17T05:37:32.260Z,100.00
2022-10-17T05:38:03.941Z,100.00
2022-10-17T05:38:35.597Z,100.00
2022-10-17T05:39:06.975Z,100.00
2022-10-17T05:39:38.348Z,100.00
2022-10-17T05:40:10.189Z,100.00
2022-10-17T05:40:41.589Z,100.00
2022-10-17T05:41:12.921Z,100.00
2022-10-17T05:41:44.255Z,100.00
2022-10-17T05:42:15.607Z,100.00
2022-10-17T05:42:48.270Z,100.00
2022-10-17T05:43:19.818Z,100.00
2022-10-17T05:43:51.241Z,100.00
2022-10-17T05:44:22.798Z,100.00
2022-10-17T05:44:54.270Z,100.00
2022-10-17T05:45:25.911Z,100.00
2022-10-17T05:45:57.638Z,100.00
2022-10-17T05:46:29.162Z,100.00
2022-10-17T05:47:00.899Z,100.00
2022-10-17T05:47:32.648Z,100.00
2022-10-17T05:48:04.353Z,100.00
2022-10-17T05:48:36.174Z,100.00
2022-10-17T05:49:14.893Z,100.00
2022-10-17T05:49:52.513Z,100.00
2022-10-17T05:50:25.138Z,100.00
2022-10-17T05:51:01.816Z,100.00
2022-10-17T05:51:34.017Z,100.00
2022-10-17T05:52:05.432Z,100.00
2022-10-17T05:52:36.949Z,100.00
2022-10-17T05:53:08.517Z,100.00
2022-10-17T05:53:41.340Z,100.00
2022-10-17T05:54:12.754Z,100.00
2022-10-17T05:54:44.316Z,100.00
2022-10-17T05:55:16.005Z,100.00
2022-10-17T05:55:55.533Z,100.00
2022-10-17T05:56:27.007Z,100.00
2022-10-17T05:56:58.438Z,100.00
2022-10-17T05:57:29.838Z,100.00
2022-10-17T05:58:01.925Z,100.00
2022-10-17T05:58:52.325Z,100.00
2022-10-17T05:59:26.924Z,100.00
2022-10-17T05:59:58.499Z,100.00
2022-10-17T06:19:29.086Z,100.00
2022-10-17T06:20:00.500Z,100.00
2022-10-17T06:20:31.961Z,100.00
2022-10-17T06:21:09.273Z,100.00
2022-10-17T06:21:40.881Z,100.00
2022-10-17T06:22:12.811Z,100.00
2022-10-17T06:22:44.405Z,100.00
2022-10-17T06:23:16.468Z,100.00
2022-10-17T06:23:48.112Z,100.00
2022-10-17T06:24:19.463Z,100.00
2022-10-17T06:24:52.522Z,100.00
2022-10-17T06:25:23.861Z,100.00
2022-10-17T06:25:59.041Z,100.00
2022-10-17T06:26:30.364Z,100.00
2022-10-17T06:27:01.987Z,100.00
2022-10-17T06:27:33.325Z,100.00
2022-10-17T06:28:04.847Z,100.00
2022-10-17T06:28:37.263Z,100.00
2022-10-17T06:29:09.338Z,100.00
2022-10-17T06:29:40.919Z,100.00
2022-10-17T06:30:12.283Z,100.00
2022-10-17T06:30:43.623Z,100.00
2022-10-17T06:31:17.234Z,100.00
2022-10-17T06:31:48.708Z,100.00
2022-10-17T06:32:20.810Z,100.00
2022-10-17T06:32:52.918Z,100.00
2022-10-17T06:33:24.521Z,100.00
2022-10-17T06:33:56.154Z,100.00
2022-10-17T06:34:27.548Z,100.00
2022-10-17T06:34:58.987Z,100.00
2022-10-17T06:35:30.386Z,100.00
2022-10-17T06:36:02.153Z,100.00
2022-10-17T06:36:33.521Z,100.00
2022-10-17T06:37:04.886Z,100.00
2022-10-17T06:37:37.567Z,100.00
2022-10-17T06:38:09.909Z,100.00
2022-10-17T06:38:41.332Z,100.00
2022-10-17T06:39:13.341Z,100.00
2022-10-17T06:39:44.749Z,100.00
2022-10-17T06:40:17.192Z,100.00
2022-10-17T06:40:48.825Z,100.00
2022-10-17T06:41:20.217Z,100.00
2022-10-17T06:41:51.777Z,100.00
2022-10-17T06:42:23.103Z,100.00
2022-10-17T06:42:54.664Z,100.00
2022-10-17T06:43:27.989Z,100.00
2022-10-17T06:43:59.479Z,100.00
2022-10-17T06:44:32.101Z,100.00
2022-10-17T06:45:03.881Z,100.00
2022-10-17T06:45:35.273Z,100.00
2022-10-17T06:46:07.043Z,100.00
2022-10-17T06:46:39.679Z,100.00
2022-10-17T06:47:12.711Z,100.00
2022-10-17T06:47:45.939Z,100.00
2022-10-17T06:48:17.394Z,100.00
2022-10-17T06:48:48.757Z,100.00
2022-10-17T06:49:20.101Z,100.00
2022-10-17T06:49:51.556Z,100.00
2022-10-17T06:50:23.092Z,100.00
2022-10-17T06:50:59.027Z,100.00
2022-10-17T06:51:31.650Z,100.00
2022-10-17T06:52:03.096Z,100.00
2022-10-17T06:52:34.461Z,100.00
2022-10-17T06:53:05.904Z,100.00
2022-10-17T06:53:38.769Z,100.00
2022-10-17T06:54:10.145Z,100.00
2022-10-17T06:54:41.503Z,100.00
2022-10-17T06:55:14.887Z,100.00
2022-10-17T06:55:52.246Z,100.00
2022-10-17T06:56:24.021Z,100.00
2022-10-17T06:56:56.138Z,100.00
2022-10-17T06:57:28.127Z,100.00
2022-10-17T06:57:59.624Z,100.00
2022-10-17T06:58:34.085Z,100.00
2022-10-17T06:59:05.506Z,100.00
2022-10-17T06:59:37.104Z,100.00
2022-10-17T07:00:09.150Z,100.00
2022-10-17T07:00:43.003Z,100.00
2022-10-17T07:01:14.710Z,100.00
2022-10-17T07:01:47.218Z,100.00
2022-10-17T07:02:18.797Z,100.00
2022-10-17T07:02:50.472Z,100.00
2022-10-17T07:03:22.051Z,100.00
2022-10-17T07:03:53.480Z,100.00
2022-10-17T07:04:25.181Z,100.00
2022-10-17T07:04:56.869Z,100.00
2022-10-17T07:05:28.306Z,100.00
2022-10-17T07:05:59.816Z,100.00
2022-10-17T07:06:31.854Z,100.00
2022-10-17T07:07:03.858Z,100.00
2022-10-17T07:07:36.836Z,100.00
2022-10-17T07:08:11.288Z,100.00
2022-10-17T07:08:44.636Z,100.00
2022-10-17T07:09:16.932Z,100.00
2022-10-17T07:09:48.530Z,100.00
2022-10-17T07:10:19.981Z,100.00
2022-10-17T07:10:51.651Z,100.00
2022-10-17T07:11:23.329Z,100.00
2022-10-17T07:11:54.711Z,100.00
2022-10-17T07:12:26.901Z,100.00
2022-10-17T07:12:58.387Z,100.00
2022-10-17T07:13:30.070Z,100.00
2022-10-17T07:14:02.247Z,100.00
2022-10-17T07:14:34.279Z,100.00
2022-10-17T07:15:06.134Z,100.00
2022-10-17T07:15:38.092Z,100.00
2022-10-17T07:16:10.617Z,100.00
2022-10-17T07:16:42.261Z,100.00
2022-10-17T07:17:13.688Z,100.00
2022-10-17T07:17:48.717Z,100.00
2022-10-17T07:18:22.309Z,100.00
2022-10-17T07:18:54.744Z,100.00
2022-10-17T07:19:30.137Z,100.00
2022-10-17T07:20:01.644Z,100.00
2022-10-17T07:20:33.274Z,100.00
2022-10-17T07:21:08.454Z,100.00
2022-10-17T07:21:39.932Z,100.00
2022-10-17T07:22:12.425Z,100.00
2022-10-17T07:22:43.941Z,100.00
2022-10-17T07:23:15.564Z,100.00
2022-10-17T07:23:48.278Z,100.00
2022-10-17T07:24:19.932Z,100.00
2022-10-17T07:24:54.508Z,100.00
2022-10-17T07:25:26.159Z,100.00
2022-10-17T07:26:02.277Z,100.00
2022-10-17T07:26:33.940Z,100.00
2022-10-17T07:27:05.376Z,100.00
2022-10-17T07:27:39.192Z,100.00
2022-10-17T07:28:10.605Z,100.00
2022-10-17T07:28:46.953Z,100.00
2022-10-17T07:29:18.598Z,100.00
2022-10-17T07:29:50.024Z,100.00
2022-10-17T07:30:22.785Z,100.00
2022-10-17T07:30:54.740Z,100.00
2022-10-17T07:31:26.195Z,100.00
2022-10-17T07:31:57.733Z,100.00
2022-10-17T07:32:29.156Z,100.00
2022-10-17T07:33:00.820Z,100.00
2022-10-17T07:33:32.626Z,100.00
2022-10-17T07:34:04.181Z,100.00
2022-10-17T07:34:36.205Z,100.00
2022-10-17T07:35:11.661Z,100.00
2022-10-17T07:35:45.689Z,100.00
2022-10-17T07:36:18.004Z,100.00